Dogpatch, Arkansas
Current Conditions -  °F | °C
As of 7:53 PM on Friday 24 Oct 2014 (Local Time) from KHRO Reporting Station
Clear Clear  
Wind Chill: 65°   Ceiling: Unl
Heat Index: 65°   Visibility: 9mi
Dew Point: 60°   Wind: 3mph
Humidity: 84%   Direction: 240°WSW
Pressure: 30.08"   Gusts: NA
Location:  36.0842°N, 93.1502°W
Report Text: KHRO 250053Z AUTO 24003KT 9SM CLR 18/16 A3008 RMK AO2 SLP183 T01830156
Loading
Personal Weather Stations






























Interactive Weather Map New forecast layout! Learn more

10-Day Weather Forecast

Advertisements
Track Severe Weather on mobile